Main page
METAR-TAF:

METAR-TAF

Airports :

N'djili Airport

Kinshasa, Congo

latitude: 04-23S, longitude: 015-26E, elevation: 309 m

Current weather observation

The report was made 57 minutes ago, at 16:30 UTC
Wind 6 kt from the Northwest
Temperature 27°C
Humidity 74%
Pressure 1010 hPa
Visibility: 6000 m

METAR: FZAA 151630Z 32006KT 6000 NSC 27/22 Q1010 NOSIG

Time: 18:27 (17:27 UTC)

Forecast

The report was made 6 hours and 27 minutes ago, at 11:00 UTC
Forecast valid from 15 at 12 UTC to 16 at 18 UTC
Wind 6 kt from the West
Visibility: 4000 m
Broken clouds at a height of 1400 ft
mist
Becoming
from 15 at 13 UTC to 15 at 15 UTC
Visibility: 7000 m
Scattered clouds at a height of 1800 ft
Temporary
from 16 at 05 UTC to 16 at 10 UTC
Visibility: 3500 m
mist,

TAF: FZAA 151100Z 1512/1618 27006KT 4000 BR BKN014 BECMG 1513/1515 7000 NSW SCT018 TEMPO 1605/1610 3500 BR

Weather observations and forecasts of more than 4000 airports (METAR and TAF reports).

The available stations are represented by yellow and red dots on the map.

Hover mouse over dot to see the name of the station.

Then click to see weather observations and forecasts.

To change the map : click on the green buttons with a black cross to zoom in, on the green button with a dash to zoom out, or on the green arrows for adjacent maps.


METAR-TAF: